createdAt,value
2022-10-13T00:00:49.060Z,-68
2022-10-13T00:03:16.433Z,-69
2022-10-13T00:05:48.260Z,-69
2022-10-13T00:08:18.872Z,-68
2022-10-13T00:10:46.776Z,-68
2022-10-13T00:13:14.093Z,-68
2022-10-13T00:15:42.370Z,-69
2022-10-13T00:18:09.157Z,-68
2022-10-13T00:20:36.210Z,-69
2022-10-13T00:23:02.508Z,-69
2022-10-13T00:25:28.854Z,-68
2022-10-13T00:27:55.161Z,-68
2022-10-13T00:30:21.474Z,-68
2022-10-13T00:32:47.754Z,-69
2022-10-13T00:35:14.182Z,-69
2022-10-13T00:37:40.479Z,-68
2022-10-13T00:40:07.508Z,-66
2022-10-13T00:42:33.821Z,-66
2022-10-13T00:45:22.765Z,-66
2022-10-13T00:47:53.553Z,-66
2022-10-13T00:50:25.528Z,-66
2022-10-13T00:52:54.211Z,-66
2022-10-13T00:55:22.913Z,-66
2022-10-13T00:57:54.869Z,-66
2022-10-13T01:00:25.148Z,-66
2022-10-13T01:02:51.877Z,-66
2022-10-13T01:05:20.733Z,-66
2022-10-13T01:07:51.856Z,-66
2022-10-13T01:10:41.113Z,-66
2022-10-13T01:13:22.443Z,-66
2022-10-13T01:16:00.624Z,-66
2022-10-13T01:18:48.147Z,-66
2022-10-13T01:21:35.585Z,-66
2022-10-13T01:24:20.654Z,-66
2022-10-13T01:27:24.757Z,-66
2022-10-13T01:29:51.066Z,-66
2022-10-13T01:32:41.429Z,-66
2022-10-13T01:35:09.590Z,-66
2022-10-13T01:38:18.982Z,-66
2022-10-13T01:41:13.686Z,-66
2022-10-13T01:44:05.495Z,-66
2022-10-13T01:46:39.130Z,-66
2022-10-13T01:49:10.606Z,-66
2022-10-13T01:51:38.784Z,-66
2022-10-13T01:54:05.529Z,-66
2022-10-13T01:56:32.290Z,-66
2022-10-13T01:59:02.120Z,-66
2022-10-13T02:01:31.443Z,-66
2022-10-13T02:04:14.686Z,-66
2022-10-13T02:07:01.353Z,-66
2022-10-13T02:09:46.572Z,-66
2022-10-13T02:12:22.054Z,-66
2022-10-13T02:14:50.693Z,-66
2022-10-13T02:17:17.601Z,-66
2022-10-13T02:19:44.196Z,-66
2022-10-13T02:22:13.204Z,-66
2022-10-13T02:24:39.569Z,-66
2022-10-13T02:27:06.805Z,-66
2022-10-13T02:29:33.089Z,-66
2022-10-13T02:32:00.124Z,-66
2022-10-13T02:34:26.436Z,-66
2022-10-13T02:36:52.718Z,-67
2022-10-13T02:39:18.999Z,-66
2022-10-13T02:41:45.309Z,-66
2022-10-13T02:44:11.649Z,-66
2022-10-13T02:46:38.058Z,-66
2022-10-13T02:49:04.364Z,-66
2022-10-13T02:51:30.636Z,-66
2022-10-13T02:53:56.940Z,-66
2022-10-13T02:56:23.252Z,-66
2022-10-13T02:58:49.578Z,-66
2022-10-13T03:01:16.328Z,-66
2022-10-13T03:03:43.321Z,-66
2022-10-13T03:06:09.666Z,-66
2022-10-13T03:08:36.440Z,-68
2022-10-13T03:11:02.756Z,-69
2022-10-13T03:13:29.314Z,-68
2022-10-13T03:15:55.620Z,-69
2022-10-13T03:18:22.432Z,-69
2022-10-13T03:20:59.445Z,-68
2022-10-13T03:23:26.328Z,-68
2022-10-13T03:25:53.082Z,-69
2022-10-13T03:28:20.082Z,-69
2022-10-13T03:30:46.424Z,-68
2022-10-13T03:33:12.788Z,-69
2022-10-13T03:35:39.227Z,-68
2022-10-13T03:38:05.633Z,-68
2022-10-13T03:40:32.008Z,-68
2022-10-13T03:42:58.383Z,-69
2022-10-13T03:45:24.714Z,-68
2022-10-13T03:47:50.999Z,-69
2022-10-13T03:50:17.409Z,-69
2022-10-13T03:52:43.731Z,-69
2022-10-13T03:55:10.069Z,-68
2022-10-13T03:57:36.366Z,-68
2022-10-13T04:00:03.887Z,-68
2022-10-13T04:02:30.229Z,-69
2022-10-13T04:04:56.594Z,-69
2022-10-13T04:07:23.047Z,-68
2022-10-13T04:09:49.708Z,-69
2022-10-13T04:12:19.828Z,-68
2022-10-13T04:14:47.290Z,-68
2022-10-13T04:17:13.700Z,-66
2022-10-13T04:19:40.009Z,-68
2022-10-13T04:22:06.380Z,-68
2022-10-13T04:24:32.662Z,-68
2022-10-13T04:26:58.946Z,-69
2022-10-13T04:29:25.255Z,-68
2022-10-13T04:31:51.737Z,-66
2022-10-13T04:34:18.152Z,-68
2022-10-13T04:36:44.514Z,-68
2022-10-13T04:39:10.877Z,-68
2022-10-13T04:41:37.161Z,-70
2022-10-13T04:44:03.536Z,-69
2022-10-13T04:46:30.665Z,-70
2022-10-13T04:48:57.477Z,-69
2022-10-13T04:51:25.693Z,-68
2022-10-13T04:53:57.401Z,-68
2022-10-13T04:56:23.874Z,-69
2022-10-13T04:58:50.670Z,-69
2022-10-13T05:01:22.113Z,-68
2022-10-13T05:03:57.425Z,-69
2022-10-13T05:06:26.228Z,-68
2022-10-13T05:08:52.744Z,-68
2022-10-13T05:11:20.451Z,-69
2022-10-13T05:13:47.602Z,-69
2022-10-13T05:16:16.714Z,-68
2022-10-13T05:18:43.430Z,-68
2022-10-13T05:21:15.914Z,-67
2022-10-13T05:23:42.598Z,-68
2022-10-13T05:26:12.306Z,-70
2022-10-13T05:28:39.425Z,-69
2022-10-13T05:31:17.694Z,-69
2022-10-13T05:33:45.244Z,-69
2022-10-13T05:36:14.589Z,-69
2022-10-13T05:38:41.021Z,-69
2022-10-13T05:41:09.701Z,-70
2022-10-13T05:43:38.228Z,-70
2022-10-13T05:46:05.123Z,-70
2022-10-13T05:48:32.617Z,-69
2022-10-13T05:51:00.919Z,-70
2022-10-13T05:53:33.641Z,-70
2022-10-13T05:56:06.529Z,-69
2022-10-13T05:58:35.889Z,-70
2022-10-13T06:01:05.737Z,-69
2022-10-13T06:03:32.321Z,-70
2022-10-13T06:05:58.679Z,-69
2022-10-13T06:08:25.008Z,-69
2022-10-13T06:10:51.449Z,-69
2022-10-13T06:13:17.745Z,-70
2022-10-13T06:15:44.032Z,-69
2022-10-13T06:18:16.416Z,-72
2022-10-13T06:20:43.605Z,-70
2022-10-13T06:23:09.893Z,-70
2022-10-13T06:25:36.508Z,-71
2022-10-13T06:28:02.881Z,-71
2022-10-13T06:30:29.320Z,-71
2022-10-13T06:32:56.046Z,-70
2022-10-13T06:35:23.432Z,-71
2022-10-13T06:37:50.172Z,-70
2022-10-13T06:40:16.669Z,-72
2022-10-13T06:42:43.045Z,-72
2022-10-13T06:45:10.240Z,-70
2022-10-13T06:47:36.615Z,-71
2022-10-13T06:50:03.328Z,-71
2022-10-13T06:52:29.709Z,-70
2022-10-13T06:54:56.006Z,-72
2022-10-13T06:57:22.700Z,-69
2022-10-13T06:59:49.035Z,-70
2022-10-13T07:02:15.304Z,-71
2022-10-13T07:04:41.875Z,-70
2022-10-13T07:07:08.191Z,-69
2022-10-13T07:09:34.515Z,-70
2022-10-13T07:12:00.909Z,-70
2022-10-13T07:14:27.447Z,-70
2022-10-13T07:16:53.825Z,-71
2022-10-13T07:19:20.362Z,-72
2022-10-13T07:21:46.673Z,-72
2022-10-13T07:24:13.117Z,-71
2022-10-13T07:26:39.711Z,-72
2022-10-13T07:29:06.933Z,-71
2022-10-13T07:31:33.381Z,-71
2022-10-13T07:34:00.180Z,-71
2022-10-13T07:36:27.413Z,-72
2022-10-13T07:38:53.919Z,-71
2022-10-13T07:41:20.517Z,-71
2022-10-13T07:43:47.120Z,-71
2022-10-13T07:46:15.140Z,-72
2022-10-13T07:48:42.031Z,-72
2022-10-13T07:51:11.585Z,-71
2022-10-13T07:53:39.069Z,-71
2022-10-13T07:56:07.891Z,-72
2022-10-13T07:58:38.790Z,-72
2022-10-13T08:01:05.940Z,-72
2022-10-13T08:03:32.835Z,-72
2022-10-13T08:06:01.093Z,-72
2022-10-13T08:08:28.129Z,-72
2022-10-13T08:10:55.193Z,-71
2022-10-13T08:13:21.698Z,-71
2022-10-13T08:15:48.087Z,-70
2022-10-13T08:18:15.013Z,-72
2022-10-13T08:20:43.842Z,-72
2022-10-13T08:23:11.713Z,-71
2022-10-13T08:25:40.378Z,-71
2022-10-13T08:28:15.642Z,-70
2022-10-13T08:30:42.246Z,-71
2022-10-13T08:33:08.922Z,-72
2022-10-13T08:35:35.297Z,-71
2022-10-13T08:38:01.655Z,-71
2022-10-13T08:40:28.347Z,-70
2022-10-13T08:43:00.124Z,-71
2022-10-13T08:45:45.361Z,-71
2022-10-13T08:48:18.961Z,-70
2022-10-13T08:50:49.323Z,-72
2022-10-13T08:53:37.188Z,-70
2022-10-13T08:56:18.283Z,-71
2022-10-13T08:58:45.125Z,-71
2022-10-13T09:01:32.043Z,-70
2022-10-13T09:04:36.200Z,-70
2022-10-13T09:07:12.045Z,-71
2022-10-13T09:09:38.441Z,-69
2022-10-13T09:12:05.765Z,-69
2022-10-13T09:14:35.037Z,-72
2022-10-13T09:17:22.345Z,-70
2022-10-13T09:20:02.266Z,-70
2022-10-13T09:22:31.957Z,-72
2022-10-13T09:25:08.937Z,-73
2022-10-13T09:27:57.901Z,-73
2022-10-13T09:30:27.364Z,-71
2022-10-13T09:33:09.071Z,-72
2022-10-13T09:36:10.888Z,-72
2022-10-13T09:38:37.928Z,-72
2022-10-13T09:41:10.325Z,-73
2022-10-13T09:43:57.234Z,-72
2022-10-13T09:46:31.467Z,-74
2022-10-13T09:49:25.133Z,-71
2022-10-13T09:52:00.859Z,-72
2022-10-13T09:54:36.170Z,-73
2022-10-13T09:57:14.112Z,-72
2022-10-13T09:59:46.259Z,-73
2022-10-13T10:02:25.068Z,-73
2022-10-13T10:04:54.864Z,-72
2022-10-13T10:07:27.512Z,-72
2022-10-13T10:10:16.020Z,-73
2022-10-13T10:12:43.905Z,-69
2022-10-13T10:15:38.120Z,-72
2022-10-13T10:18:14.173Z,-73
2022-10-13T10:20:51.478Z,-73
2022-10-13T10:23:26.098Z,-72
2022-10-13T10:26:01.579Z,-69
2022-10-13T10:28:50.556Z,-72
2022-10-13T10:31:30.083Z,-72
2022-10-13T10:33:56.370Z,-72
2022-10-13T10:36:33.799Z,-72
2022-10-13T10:39:17.592Z,-70
2022-10-13T10:42:04.295Z,-71
2022-10-13T10:44:36.411Z,-70
2022-10-13T10:47:07.462Z,-70
2022-10-13T10:49:36.326Z,-70
2022-10-13T10:52:10.320Z,-70
2022-10-13T10:54:49.621Z,-70
2022-10-13T10:57:25.198Z,-73
2022-10-13T11:00:15.808Z,-71
2022-10-13T11:02:54.270Z,-71
2022-10-13T11:05:20.906Z,-71
2022-10-13T11:07:55.567Z,-70
2022-10-13T11:10:22.078Z,-70
2022-10-13T11:12:51.426Z,-70
2022-10-13T11:15:41.196Z,-70
2022-10-13T11:18:45.193Z,-71
2022-10-13T11:21:11.496Z,-71
2022-10-13T11:23:45.450Z,-71
2022-10-13T11:26:40.095Z,-70
2022-10-13T11:29:16.566Z,-74
2022-10-13T11:31:54.933Z,-70
2022-10-13T11:34:31.953Z,-73
2022-10-13T11:37:00.594Z,-73
2022-10-13T11:39:27.671Z,-70
2022-10-13T11:42:35.848Z,-72
2022-10-13T11:45:17.905Z,-73
2022-10-13T11:48:02.844Z,-72
2022-10-13T11:50:41.290Z,-73
2022-10-13T11:53:24.650Z,-72
2022-10-13T11:55:59.590Z,-72
2022-10-13T11:58:31.264Z,-73
2022-10-13T12:01:13.213Z,-73
2022-10-13T12:03:43.258Z,-73
2022-10-13T12:06:33.691Z,-69
2022-10-13T12:09:03.922Z,-74
2022-10-13T12:11:36.970Z,-73
2022-10-13T12:14:07.230Z,-71
2022-10-13T12:16:33.961Z,-73
2022-10-13T12:19:19.636Z,-70
2022-10-13T12:21:51.447Z,-73
2022-10-13T12:24:17.857Z,-72
2022-10-13T12:26:44.268Z,-70
2022-10-13T12:29:14.221Z,-70
2022-10-13T12:31:46.326Z,-70
2022-10-13T12:34:31.944Z,-71
2022-10-13T12:37:05.260Z,-73
2022-10-13T12:39:33.542Z,-72
2022-10-13T12:42:02.226Z,-73
2022-10-13T12:44:31.585Z,-73
2022-10-13T12:47:00.489Z,-71
2022-10-13T12:49:28.064Z,-73
2022-10-13T12:52:09.656Z,-74
2022-10-13T12:54:46.761Z,-73
2022-10-13T12:57:22.537Z,-73
2022-10-13T12:59:49.348Z,-72
2022-10-13T13:02:26.992Z,-74
2022-10-13T13:04:53.686Z,-70
2022-10-13T13:07:30.630Z,-73
2022-10-13T13:10:02.410Z,-73
2022-10-13T13:12:30.238Z,-73
2022-10-13T13:14:56.968Z,-71
2022-10-13T13:20:33.721Z,-73
2022-10-13T13:23:00.652Z,-72
2022-10-13T13:25:27.137Z,-71
2022-10-13T13:27:53.588Z,-71
2022-10-13T13:30:22.340Z,-72
2022-10-13T13:32:49.549Z,-74
2022-10-13T13:35:16.430Z,-72
2022-10-13T13:37:50.380Z,-71
2022-10-13T13:40:23.269Z,-71
2022-10-13T13:42:49.624Z,-73
2022-10-13T13:45:18.318Z,-70
2022-10-13T13:47:45.348Z,-70
2022-10-13T13:50:24.193Z,-70
2022-10-13T13:52:50.969Z,-70
2022-10-13T13:55:17.933Z,-70
2022-10-13T13:57:44.888Z,-71
2022-10-13T14:00:13.709Z,-70
2022-10-13T14:02:40.991Z,-70
2022-10-13T14:05:07.674Z,-71
2022-10-13T14:07:34.158Z,-70
2022-10-13T14:10:02.130Z,-70
2022-10-13T14:12:30.464Z,-70
2022-10-13T14:14:56.834Z,-70
2022-10-13T14:17:23.150Z,-70
2022-10-13T14:19:49.428Z,-70
2022-10-13T14:22:15.814Z,-70
2022-10-13T14:24:42.158Z,-71
2022-10-13T14:27:11.325Z,-70
2022-10-13T14:29:37.605Z,-70
2022-10-13T14:32:04.130Z,-70
2022-10-13T14:34:30.448Z,-71
2022-10-13T14:36:56.744Z,-70
2022-10-13T14:39:23.014Z,-70
2022-10-13T14:41:49.321Z,-70
2022-10-13T14:44:15.744Z,-70
2022-10-13T14:46:42.054Z,-70
2022-10-13T14:49:10.507Z,-70
2022-10-13T14:51:36.915Z,-70
2022-10-13T14:54:04.364Z,-71
2022-10-13T14:56:31.113Z,-70
2022-10-13T14:59:00.402Z,-70
2022-10-13T15:01:27.510Z,-70
2022-10-13T15:03:53.889Z,-69
2022-10-13T15:06:22.742Z,-70
2022-10-13T15:08:49.159Z,-70
2022-10-13T15:11:17.056Z,-70
2022-10-13T15:13:43.472Z,-71
2022-10-13T15:16:37.737Z,-70
2022-10-13T15:19:04.864Z,-70
2022-10-13T15:21:31.280Z,-71
2022-10-13T15:23:57.721Z,-70
2022-10-13T15:26:24.349Z,-70
2022-10-13T15:28:52.894Z,-70
2022-10-13T15:31:21.327Z,-70
2022-10-13T15:33:51.668Z,-70
2022-10-13T15:36:19.546Z,-70
2022-10-13T15:38:46.265Z,-69
2022-10-13T15:41:12.696Z,-70
2022-10-13T15:43:39.309Z,-72
2022-10-13T15:46:07.822Z,-71
2022-10-13T15:48:34.990Z,-71
2022-10-13T15:51:01.733Z,-69
2022-10-13T15:53:29.464Z,-71
2022-10-13T15:55:55.801Z,-69
2022-10-13T15:58:22.478Z,-73
2022-10-13T16:00:48.786Z,-74
2022-10-13T16:03:17.137Z,-68
2022-10-13T16:05:44.888Z,-72
2022-10-13T16:08:11.749Z,-68
2022-10-13T16:10:40.855Z,-72
2022-10-13T16:13:08.278Z,-72
2022-10-13T16:15:34.789Z,-72
2022-10-13T16:18:01.208Z,-69
2022-10-13T16:20:32.810Z,-73
2022-10-13T16:22:59.085Z,-72
2022-10-13T16:25:25.389Z,-71
2022-10-13T16:27:51.821Z,-73
2022-10-13T16:30:18.133Z,-69
2022-10-13T16:32:44.412Z,-68
2022-10-13T16:35:10.769Z,-69
2022-10-13T16:37:37.126Z,-72
2022-10-13T16:40:03.534Z,-72
2022-10-13T16:42:29.851Z,-72
2022-10-13T16:44:56.138Z,-72
2022-10-13T16:47:22.810Z,-68
2022-10-13T16:49:49.313Z,-71
2022-10-13T16:52:15.627Z,-70
2022-10-13T16:54:41.947Z,-72
2022-10-13T16:57:08.739Z,-70
2022-10-13T16:59:35.024Z,-70
2022-10-13T17:02:01.334Z,-69
2022-10-13T17:04:28.820Z,-70
2022-10-13T17:06:55.253Z,-73
2022-10-13T17:09:21.537Z,-70
2022-10-13T17:11:47.861Z,-69
2022-10-13T17:14:14.213Z,-69
2022-10-13T17:16:40.501Z,-71
2022-10-13T17:19:07.241Z,-72
2022-10-13T17:21:33.988Z,-72
2022-10-13T17:24:00.386Z,-73
2022-10-13T17:26:26.750Z,-73
2022-10-13T17:28:53.444Z,-73
2022-10-13T17:31:23.025Z,-68
2022-10-13T17:33:50.633Z,-68
2022-10-13T17:36:18.236Z,-72
2022-10-13T17:38:45.514Z,-68
2022-10-13T17:41:12.765Z,-72
2022-10-13T17:43:40.003Z,-73
2022-10-13T17:46:35.182Z,-73
2022-10-13T17:48:59.372Z,-72
2022-10-13T17:51:25.836Z,-71
2022-10-13T17:53:52.800Z,-71
2022-10-13T17:56:21.647Z,-71
2022-10-13T17:58:49.512Z,-73
2022-10-13T18:01:19.746Z,-70
2022-10-13T18:03:51.875Z,-72
2022-10-13T18:06:19.818Z,-71
2022-10-13T18:08:46.537Z,-73
2022-10-13T18:11:15.992Z,-73
2022-10-13T18:13:44.466Z,-69
2022-10-13T18:16:14.747Z,-70
2022-10-13T18:18:43.814Z,-71
2022-10-13T18:21:12.344Z,-70
2022-10-13T18:23:39.617Z,-73
2022-10-13T18:26:17.953Z,-74
2022-10-13T18:28:45.162Z,-73
2022-10-13T18:31:16.901Z,-73
2022-10-13T18:33:43.852Z,-73
2022-10-13T18:36:15.016Z,-70
2022-10-13T18:38:41.361Z,-71
2022-10-13T18:41:07.695Z,-74
2022-10-13T18:43:34.117Z,-74
2022-10-13T18:46:02.258Z,-74
2022-10-13T18:48:28.760Z,-73
2022-10-13T18:50:55.097Z,-70
2022-10-13T18:53:21.993Z,-73
2022-10-13T18:55:48.515Z,-71
2022-10-13T18:58:14.853Z,-70
2022-10-13T19:00:41.240Z,-71
2022-10-13T19:03:07.562Z,-70
2022-10-13T19:05:39.046Z,-71
2022-10-13T19:08:09.274Z,-71
2022-10-13T19:10:36.297Z,-70
2022-10-13T19:13:03.054Z,-73
2022-10-13T19:15:29.516Z,-72
2022-10-13T19:17:55.845Z,-74
2022-10-13T19:20:22.159Z,-71
2022-10-13T19:22:48.489Z,-70
2022-10-13T19:25:14.928Z,-73
2022-10-13T19:27:41.249Z,-71
2022-10-13T19:30:08.173Z,-70
2022-10-13T19:32:34.522Z,-70
2022-10-13T19:35:01.032Z,-74
2022-10-13T19:37:27.359Z,-73
2022-10-13T19:39:53.662Z,-70
2022-10-13T19:42:20.018Z,-71
2022-10-13T19:44:46.382Z,-73
2022-10-13T19:47:12.668Z,-70
2022-10-13T19:49:39.158Z,-71
2022-10-13T19:52:05.579Z,-70
2022-10-13T19:54:35.560Z,-73
2022-10-13T19:57:01.943Z,-72
2022-10-13T19:59:28.360Z,-70
2022-10-13T20:01:55.765Z,-73
2022-10-13T20:04:22.079Z,-69
2022-10-13T20:06:49.931Z,-71
2022-10-13T20:09:17.562Z,-72
2022-10-13T20:11:46.697Z,-70
2022-10-13T20:14:14.109Z,-72
2022-10-13T20:16:40.503Z,-70
2022-10-13T20:19:07.017Z,-70
2022-10-13T20:21:33.744Z,-70
2022-10-13T20:24:03.397Z,-73
2022-10-13T20:26:29.738Z,-70
2022-10-13T20:28:56.203Z,-73
2022-10-13T20:31:23.029Z,-70
2022-10-13T20:33:54.617Z,-70
2022-10-13T20:36:21.031Z,-70
2022-10-13T20:38:48.639Z,-70
2022-10-13T20:41:19.459Z,-70
2022-10-13T20:43:47.257Z,-70
2022-10-13T20:46:14.620Z,-71
2022-10-13T20:49:08.821Z,-70
2022-10-13T20:51:28.378Z,-70
2022-10-13T20:53:54.740Z,-70
2022-10-13T20:56:23.526Z,-70
2022-10-13T20:58:51.046Z,-70
2022-10-13T21:01:19.076Z,-70
2022-10-13T21:03:45.558Z,-70
2022-10-13T21:06:13.481Z,-70
2022-10-13T21:08:40.644Z,-70
2022-10-13T21:11:09.812Z,-71
2022-10-13T21:13:37.546Z,-70
2022-10-13T21:16:22.926Z,-70
2022-10-13T21:18:51.543Z,-70
2022-10-13T21:21:20.737Z,-70
2022-10-13T21:23:54.561Z,-72
2022-10-13T21:26:22.426Z,-70
2022-10-13T21:28:50.022Z,-72
2022-10-13T21:31:17.779Z,-70
2022-10-13T21:33:44.557Z,-70
2022-10-13T21:36:18.967Z,-71
2022-10-13T21:38:49.901Z,-70
2022-10-13T21:41:16.586Z,-70
2022-10-13T21:43:43.084Z,-72
2022-10-13T21:46:18.435Z,-70
2022-10-13T21:48:46.495Z,-70
2022-10-13T21:51:24.706Z,-70
2022-10-13T21:53:56.405Z,-70
2022-10-13T21:56:24.054Z,-70
2022-10-13T21:58:50.554Z,-70
2022-10-13T22:01:18.396Z,-71
2022-10-13T22:03:47.040Z,-70
2022-10-13T22:06:19.171Z,-70
2022-10-13T22:08:47.852Z,-71
2022-10-13T22:11:15.557Z,-70
2022-10-13T22:13:43.123Z,-70
2022-10-13T22:16:14.097Z,-70
2022-10-13T22:18:41.133Z,-70
2022-10-13T22:21:10.817Z,-70
2022-10-13T22:23:37.337Z,-70
2022-10-13T22:26:03.909Z,-70
2022-10-13T22:28:36.882Z,-70
2022-10-13T22:31:09.363Z,-70
2022-10-13T22:33:37.270Z,-71
2022-10-13T22:36:08.823Z,-70
2022-10-13T22:38:35.459Z,-71
2022-10-13T22:41:03.627Z,-70
2022-10-13T22:43:30.031Z,-70
2022-10-13T22:45:56.496Z,-70
2022-10-13T22:48:23.197Z,-70
2022-10-13T22:50:49.507Z,-70
2022-10-13T22:53:15.861Z,-70
2022-10-13T22:55:42.459Z,-70
2022-10-13T22:58:08.990Z,-70
2022-10-13T23:00:36.546Z,-71
2022-10-13T23:03:03.082Z,-71
2022-10-13T23:05:29.809Z,-71
2022-10-13T23:07:56.609Z,-71
2022-10-13T23:10:23.706Z,-71
2022-10-13T23:12:50.037Z,-71
2022-10-13T23:15:16.360Z,-71
2022-10-13T23:17:42.771Z,-71
2022-10-13T23:20:09.277Z,-71
2022-10-13T23:22:35.585Z,-71
2022-10-13T23:25:01.954Z,-71
2022-10-13T23:27:28.324Z,-71
2022-10-13T23:29:54.655Z,-71
2022-10-13T23:32:20.952Z,-71
2022-10-13T23:34:47.348Z,-71
2022-10-13T23:37:13.737Z,-71
2022-10-13T23:39:40.037Z,-71
2022-10-13T23:42:06.341Z,-71
2022-10-13T23:44:32.693Z,-71
2022-10-13T23:46:59.001Z,-71
2022-10-13T23:49:25.308Z,-70
2022-10-13T23:51:51.649Z,-71
2022-10-13T23:54:18.128Z,-70
2022-10-13T23:56:44.452Z,-70
2022-10-13T23:59:10.786Z,-71
